sensor_id;sensor_type;location;lat;lon;timestamp;temperature;humidity
59857;DHT22;45733;52.668;6.860;2023-05-07T00:00:13;14.20;99.90
59857;DHT22;45733;52.668;6.860;2023-05-07T00:02:40;14.10;99.90
59857;DHT22;45733;52.668;6.860;2023-05-07T00:05:06;14.10;99.90
59857;DHT22;45733;52.668;6.860;2023-05-07T00:07:32;14.10;99.90
59857;DHT22;45733;52.668;6.860;2023-05-07T00:09:58;14.10;99.90
59857;DHT22;45733;52.668;6.860;2023-05-07T00:12:23;14.10;99.90
59857;DHT22;45733;52.668;6.860;2023-05-07T00:14:49;14.10;99.90
59857;DHT22;45733;52.668;6.860;2023-05-07T00:17:14;14.00;99.90
59857;DHT22;45733;52.668;6.860;2023-05-07T00:19:40;14.00;99.90
59857;DHT22;45733;52.668;6.860;2023-05-07T00:22:06;14.00;99.90
59857;DHT22;45733;52.668;6.860;2023-05-07T00:24:32;14.00;99.90
59857;DHT22;45733;52.668;6.860;2023-05-07T00:26:57;13.90;99.90
59857;DHT22;45733;52.668;6.860;2023-05-07T00:29:23;13.90;99.90
59857;DHT22;45733;52.668;6.860;2023-05-07T00:31:49;13.90;99.90
59857;DHT22;45733;52.668;6.860;2023-05-07T00:34:14;13.90;99.90
59857;DHT22;45733;52.668;6.860;2023-05-07T00:36:40;13.80;99.90
59857;DHT22;45733;52.668;6.860;2023-05-07T00:39:05;13.80;99.90
59857;DHT22;45733;52.668;6.860;2023-05-07T00:41:32;13.80;99.90
59857;DHT22;45733;52.668;6.860;2023-05-07T00:43:57;13.70;99.90
59857;DHT22;45733;52.668;6.860;2023-05-07T00:46:23;13.70;99.90
59857;DHT22;45733;52.668;6.860;2023-05-07T00:48:49;13.70;99.90
59857;DHT22;45733;52.668;6.860;2023-05-07T00:51:15;13.60;99.90
59857;DHT22;45733;52.668;6.860;2023-05-07T00:53:41;13.60;99.90
59857;DHT22;45733;52.668;6.860;2023-05-07T00:56:07;13.50;99.90
59857;DHT22;45733;52.668;6.860;2023-05-07T00:58:33;13.40;99.90
59857;DHT22;45733;52.668;6.860;2023-05-07T01:00:59;13.40;99.90
59857;DHT22;45733;52.668;6.860;2023-05-07T01:03:24;13.30;99.90
59857;DHT22;45733;52.668;6.860;2023-05-07T01:05:51;13.30;99.90
59857;DHT22;45733;52.668;6.860;2023-05-07T01:08:18;13.30;99.90
59857;DHT22;45733;52.668;6.860;2023-05-07T01:10:43;13.20;99.90
59857;DHT22;45733;52.668;6.860;2023-05-07T01:13:09;13.20;99.90
59857;DHT22;45733;52.668;6.860;2023-05-07T01:15:36;13.10;99.90
59857;DHT22;45733;52.668;6.860;2023-05-07T01:18:01;13.10;99.90
59857;DHT22;45733;52.668;6.860;2023-05-07T01:20:27;13.10;99.90
59857;DHT22;45733;52.668;6.860;2023-05-07T01:22:53;13.10;99.90
59857;DHT22;45733;52.668;6.860;2023-05-07T01:25:18;12.90;99.90
59857;DHT22;45733;52.668;6.860;2023-05-07T01:27:44;12.90;99.90
59857;DHT22;45733;52.668;6.860;2023-05-07T01:30:10;12.90;99.90
59857;DHT22;45733;52.668;6.860;2023-05-07T01:32:43;12.90;99.90
59857;DHT22;45733;52.668;6.860;2023-05-07T01:35:13;12.80;99.90
59857;DHT22;45733;52.668;6.860;2023-05-07T01:37:40;12.70;99.90
59857;DHT22;45733;52.668;6.860;2023-05-07T01:40:07;12.70;99.90
59857;DHT22;45733;52.668;6.860;2023-05-07T01:42:33;12.70;99.90
59857;DHT22;45733;52.668;6.860;2023-05-07T01:44:58;12.60;99.90
59857;DHT22;45733;52.668;6.860;2023-05-07T01:47:24;12.60;99.90
59857;DHT22;45733;52.668;6.860;2023-05-07T01:49:50;12.60;99.90
59857;DHT22;45733;52.668;6.860;2023-05-07T01:52:16;12.60;99.90
59857;DHT22;45733;52.668;6.860;2023-05-07T01:54:41;12.60;99.90
59857;DHT22;45733;52.668;6.860;2023-05-07T01:57:07;12.60;99.90
59857;DHT22;45733;52.668;6.860;2023-05-07T01:59:33;12.50;99.90
59857;DHT22;45733;52.668;6.860;2023-05-07T02:01:59;12.40;99.90
59857;DHT22;45733;52.668;6.860;2023-05-07T02:04:24;12.40;99.90
59857;DHT22;45733;52.668;6.860;2023-05-07T02:06:50;12.40;99.90
59857;DHT22;45733;52.668;6.860;2023-05-07T02:09:15;12.30;99.90
59857;DHT22;45733;52.668;6.860;2023-05-07T02:11:41;12.40;99.90
59857;DHT22;45733;52.668;6.860;2023-05-07T02:14:06;12.20;99.90
59857;DHT22;45733;52.668;6.860;2023-05-07T02:16:32;12.20;99.90
59857;DHT22;45733;52.668;6.860;2023-05-07T02:18:57;12.20;99.90
59857;DHT22;45733;52.668;6.860;2023-05-07T02:21:24;12.10;99.90
59857;DHT22;45733;52.668;6.860;2023-05-07T02:23:50;12.10;99.90
59857;DHT22;45733;52.668;6.860;2023-05-07T02:26:16;12.10;99.90
59857;DHT22;45733;52.668;6.860;2023-05-07T02:28:41;12.10;99.90
59857;DHT22;45733;52.668;6.860;2023-05-07T02:31:07;12.00;99.90
59857;DHT22;45733;52.668;6.860;2023-05-07T02:33:32;12.00;99.90
59857;DHT22;45733;52.668;6.860;2023-05-07T02:36:09;12.00;99.90
59857;DHT22;45733;52.668;6.860;2023-05-07T02:38:35;12.00;99.90
59857;DHT22;45733;52.668;6.860;2023-05-07T02:41:00;12.00;99.90
59857;DHT22;45733;52.668;6.860;2023-05-07T02:43:26;12.00;99.90
59857;DHT22;45733;52.668;6.860;2023-05-07T02:48:27;11.90;99.90
59857;DHT22;45733;52.668;6.860;2023-05-07T02:50:52;12.00;99.90
59857;DHT22;45733;52.668;6.860;2023-05-07T02:53:18;11.90;99.90
59857;DHT22;45733;52.668;6.860;2023-05-07T02:55:43;11.90;99.90
59857;DHT22;45733;52.668;6.860;2023-05-07T02:58:09;11.90;99.90
59857;DHT22;45733;52.668;6.860;2023-05-07T03:00:34;11.80;99.90
59857;DHT22;45733;52.668;6.860;2023-05-07T03:03:00;11.90;99.90
59857;DHT22;45733;52.668;6.860;2023-05-07T03:05:25;11.90;99.90
59857;DHT22;45733;52.668;6.860;2023-05-07T03:07:51;11.90;99.90
59857;DHT22;45733;52.668;6.860;2023-05-07T03:10:17;11.80;99.90
59857;DHT22;45733;52.668;6.860;2023-05-07T03:12:43;11.90;99.90
59857;DHT22;45733;52.668;6.860;2023-05-07T03:15:09;11.80;99.90
59857;DHT22;45733;52.668;6.860;2023-05-07T03:17:35;11.90;99.90
59857;DHT22;45733;52.668;6.860;2023-05-07T03:20:01;11.90;99.90
59857;DHT22;45733;52.668;6.860;2023-05-07T03:22:27;11.90;99.90
59857;DHT22;45733;52.668;6.860;2023-05-07T03:24:52;11.90;99.90
59857;DHT22;45733;52.668;6.860;2023-05-07T03:27:18;11.80;99.90
59857;DHT22;45733;52.668;6.860;2023-05-07T03:29:43;11.80;99.90
59857;DHT22;45733;52.668;6.860;2023-05-07T03:32:09;11.70;99.90
59857;DHT22;45733;52.668;6.860;2023-05-07T03:34:34;11.70;99.90
59857;DHT22;45733;52.668;6.860;2023-05-07T03:37:00;11.70;99.90
59857;DHT22;45733;52.668;6.860;2023-05-07T03:39:25;11.80;99.90
59857;DHT22;45733;52.668;6.860;2023-05-07T03:41:51;11.70;99.90
59857;DHT22;45733;52.668;6.860;2023-05-07T03:44:16;11.70;99.90
59857;DHT22;45733;52.668;6.860;2023-05-07T03:46:42;11.70;99.90
59857;DHT22;45733;52.668;6.860;2023-05-07T03:49:08;11.70;99.90
59857;DHT22;45733;52.668;6.860;2023-05-07T03:51:33;11.70;99.90
59857;DHT22;45733;52.668;6.860;2023-05-07T03:53:59;11.70;99.90
59857;DHT22;45733;52.668;6.860;2023-05-07T03:56:24;11.70;99.90
59857;DHT22;45733;52.668;6.860;2023-05-07T03:58:52;11.70;99.90
59857;DHT22;45733;52.668;6.860;2023-05-07T04:01:17;11.70;99.90
59857;DHT22;45733;52.668;6.860;2023-05-07T04:03:43;11.80;99.90
59857;DHT22;45733;52.668;6.860;2023-05-07T04:06:08;11.70;99.90
59857;DHT22;45733;52.668;6.860;2023-05-07T04:08:34;11.70;99.90
59857;DHT22;45733;52.668;6.860;2023-05-07T04:10:59;11.60;99.90
59857;DHT22;45733;52.668;6.860;2023-05-07T04:13:25;11.60;99.90
59857;DHT22;45733;52.668;6.860;2023-05-07T04:15:51;11.70;99.90
59857;DHT22;45733;52.668;6.860;2023-05-07T04:18:17;11.60;99.90
59857;DHT22;45733;52.668;6.860;2023-05-07T04:20:42;11.70;99.90
59857;DHT22;45733;52.668;6.860;2023-05-07T04:23:08;11.60;99.90
59857;DHT22;45733;52.668;6.860;2023-05-07T04:25:34;11.60;99.90
59857;DHT22;45733;52.668;6.860;2023-05-07T04:27:59;11.70;99.90
59857;DHT22;45733;52.668;6.860;2023-05-07T04:30:25;11.70;99.90
59857;DHT22;45733;52.668;6.860;2023-05-07T04:32:51;11.60;99.90
59857;DHT22;45733;52.668;6.860;2023-05-07T04:35:17;11.60;99.90
59857;DHT22;45733;52.668;6.860;2023-05-07T04:37:42;11.70;99.90
59857;DHT22;45733;52.668;6.860;2023-05-07T04:40:08;11.70;99.90
59857;DHT22;45733;52.668;6.860;2023-05-07T04:42:33;11.70;99.90
59857;DHT22;45733;52.668;6.860;2023-05-07T04:44:59;11.70;99.90
59857;DHT22;45733;52.668;6.860;2023-05-07T04:47:25;11.70;99.90
59857;DHT22;45733;52.668;6.860;2023-05-07T04:49:51;11.70;99.90
59857;DHT22;45733;52.668;6.860;2023-05-07T04:52:16;11.70;99.90
59857;DHT22;45733;52.668;6.860;2023-05-07T04:54:42;11.70;99.90
59857;DHT22;45733;52.668;6.860;2023-05-07T04:57:07;11.80;99.90
59857;DHT22;45733;52.668;6.860;2023-05-07T04:59:33;11.70;99.90
59857;DHT22;45733;52.668;6.860;2023-05-07T05:01:58;11.60;99.90
59857;DHT22;45733;52.668;6.860;2023-05-07T05:04:24;11.70;99.90
59857;DHT22;45733;52.668;6.860;2023-05-07T05:06:49;11.70;99.90
59857;DHT22;45733;52.668;6.860;2023-05-07T05:09:15;11.70;99.90
59857;DHT22;45733;52.668;6.860;2023-05-07T05:11:41;11.70;99.90
59857;DHT22;45733;52.668;6.860;2023-05-07T05:14:06;11.90;99.90
59857;DHT22;45733;52.668;6.860;2023-05-07T05:16:32;11.90;99.90
59857;DHT22;45733;52.668;6.860;2023-05-07T05:18:58;12.00;99.90
59857;DHT22;45733;52.668;6.860;2023-05-07T05:21:23;11.90;99.90
59857;DHT22;45733;52.668;6.860;2023-05-07T05:23:49;11.90;99.90
59857;DHT22;45733;52.668;6.860;2023-05-07T05:26:15;12.00;99.90
59857;DHT22;45733;52.668;6.860;2023-05-07T05:28:40;12.00;99.90
59857;DHT22;45733;52.668;6.860;2023-05-07T05:31:06;12.00;99.90
59857;DHT22;45733;52.668;6.860;2023-05-07T05:33:31;11.90;99.90
59857;DHT22;45733;52.668;6.860;2023-05-07T05:35:57;12.10;99.90
59857;DHT22;45733;52.668;6.860;2023-05-07T05:38:23;12.00;99.90
59857;DHT22;45733;52.668;6.860;2023-05-07T05:40:48;11.90;99.90
59857;DHT22;45733;52.668;6.860;2023-05-07T05:43:14;11.90;99.90
59857;DHT22;45733;52.668;6.860;2023-05-07T05:45:39;12.00;99.90
59857;DHT22;45733;52.668;6.860;2023-05-07T05:48:05;12.00;99.90
59857;DHT22;45733;52.668;6.860;2023-05-07T05:50:31;12.00;99.90
59857;DHT22;45733;52.668;6.860;2023-05-07T05:52:56;12.00;99.90
59857;DHT22;45733;52.668;6.860;2023-05-07T05:55:23;12.10;99.90
59857;DHT22;45733;52.668;6.860;2023-05-07T05:57:49;12.20;99.90
59857;DHT22;45733;52.668;6.860;2023-05-07T06:00:15;12.20;99.90
59857;DHT22;45733;52.668;6.860;2023-05-07T06:02:41;12.10;99.90
59857;DHT22;45733;52.668;6.860;2023-05-07T06:05:08;12.20;99.90
59857;DHT22;45733;52.668;6.860;2023-05-07T06:07:35;12.20;99.90
59857;DHT22;45733;52.668;6.860;2023-05-07T06:10:01;12.20;99.90
59857;DHT22;45733;52.668;6.860;2023-05-07T06:12:27;12.30;99.90
59857;DHT22;45733;52.668;6.860;2023-05-07T06:14:52;12.30;99.90
59857;DHT22;45733;52.668;6.860;2023-05-07T06:17:18;12.10;99.90
59857;DHT22;45733;52.668;6.860;2023-05-07T06:19:43;12.20;99.90
59857;DHT22;45733;52.668;6.860;2023-05-07T06:22:09;12.10;99.90
59857;DHT22;45733;52.668;6.860;2023-05-07T06:24:35;12.20;99.90
59857;DHT22;45733;52.668;6.860;2023-05-07T06:27:00;12.30;99.90
59857;DHT22;45733;52.668;6.860;2023-05-07T06:29:26;12.30;99.90
59857;DHT22;45733;52.668;6.860;2023-05-07T06:31:54;12.30;99.90
59857;DHT22;45733;52.668;6.860;2023-05-07T06:34:19;12.50;99.90
59857;DHT22;45733;52.668;6.860;2023-05-07T06:36:45;12.30;99.90
59857;DHT22;45733;52.668;6.860;2023-05-07T06:39:11;12.40;99.90
59857;DHT22;45733;52.668;6.860;2023-05-07T06:41:36;12.40;99.90
59857;DHT22;45733;52.668;6.860;2023-05-07T06:44:02;12.40;99.90
59857;DHT22;45733;52.668;6.860;2023-05-07T06:46:28;12.40;99.90
59857;DHT22;45733;52.668;6.860;2023-05-07T06:48:54;12.40;99.90
59857;DHT22;45733;52.668;6.860;2023-05-07T06:51:19;12.50;99.90
59857;DHT22;45733;52.668;6.860;2023-05-07T06:53:45;12.60;99.90
59857;DHT22;45733;52.668;6.860;2023-05-07T06:56:10;12.60;99.90
59857;DHT22;45733;52.668;6.860;2023-05-07T06:58:36;12.60;99.90
59857;DHT22;45733;52.668;6.860;2023-05-07T07:01:02;12.60;99.90
59857;DHT22;45733;52.668;6.860;2023-05-07T07:03:27;12.70;99.90
59857;DHT22;45733;52.668;6.860;2023-05-07T07:05:53;12.80;99.90
59857;DHT22;45733;52.668;6.860;2023-05-07T07:08:19;12.90;99.90
59857;DHT22;45733;52.668;6.860;2023-05-07T07:10:46;13.00;99.90
59857;DHT22;45733;52.668;6.860;2023-05-07T07:13:12;12.80;99.90
59857;DHT22;45733;52.668;6.860;2023-05-07T07:15:38;12.90;99.90
59857;DHT22;45733;52.668;6.860;2023-05-07T07:18:04;12.90;99.90
59857;DHT22;45733;52.668;6.860;2023-05-07T07:20:29;12.70;99.90
59857;DHT22;45733;52.668;6.860;2023-05-07T07:22:55;12.80;99.90
59857;DHT22;45733;52.668;6.860;2023-05-07T07:25:20;12.90;99.90
59857;DHT22;45733;52.668;6.860;2023-05-07T07:27:46;12.70;99.90
59857;DHT22;45733;52.668;6.860;2023-05-07T07:30:11;12.80;99.90
59857;DHT22;45733;52.668;6.860;2023-05-07T07:32:37;13.00;99.90
59857;DHT22;45733;52.668;6.860;2023-05-07T07:35:02;12.80;99.90
59857;DHT22;45733;52.668;6.860;2023-05-07T07:37:28;13.00;99.90
59857;DHT22;45733;52.668;6.860;2023-05-07T07:39:55;13.00;99.90
59857;DHT22;45733;52.668;6.860;2023-05-07T07:42:20;13.10;99.90
59857;DHT22;45733;52.668;6.860;2023-05-07T07:44:46;13.10;99.90
59857;DHT22;45733;52.668;6.860;2023-05-07T07:47:11;13.40;99.90
59857;DHT22;45733;52.668;6.860;2023-05-07T07:49:37;13.30;99.90
59857;DHT22;45733;52.668;6.860;2023-05-07T07:52:02;13.30;99.90
59857;DHT22;45733;52.668;6.860;2023-05-07T07:54:28;13.30;99.90
59857;DHT22;45733;52.668;6.860;2023-05-07T07:56:54;13.30;99.90
59857;DHT22;45733;52.668;6.860;2023-05-07T07:59:20;13.80;99.90
59857;DHT22;45733;52.668;6.860;2023-05-07T08:01:45;13.40;99.90
59857;DHT22;45733;52.668;6.860;2023-05-07T08:04:13;13.90;99.90
59857;DHT22;45733;52.668;6.860;2023-05-07T08:06:39;14.00;99.90
59857;DHT22;45733;52.668;6.860;2023-05-07T08:09:04;14.20;99.90
59857;DHT22;45733;52.668;6.860;2023-05-07T08:11:30;14.00;99.90
59857;DHT22;45733;52.668;6.860;2023-05-07T08:13:55;14.50;99.90
59857;DHT22;45733;52.668;6.860;2023-05-07T08:16:21;14.20;99.90
59857;DHT22;45733;52.668;6.860;2023-05-07T08:18:46;14.10;99.90
59857;DHT22;45733;52.668;6.860;2023-05-07T08:21:12;14.10;99.90
59857;DHT22;45733;52.668;6.860;2023-05-07T08:23:38;15.10;99.90
59857;DHT22;45733;52.668;6.860;2023-05-07T08:26:03;15.00;99.90
59857;DHT22;45733;52.668;6.860;2023-05-07T08:28:29;14.80;99.90
59857;DHT22;45733;52.668;6.860;2023-05-07T08:30:54;14.50;99.90
59857;DHT22;45733;52.668;6.860;2023-05-07T08:33:22;14.90;99.90
59857;DHT22;45733;52.668;6.860;2023-05-07T08:35:47;14.60;99.90
59857;DHT22;45733;52.668;6.860;2023-05-07T08:38:13;14.60;99.90
59857;DHT22;45733;52.668;6.860;2023-05-07T08:40:39;15.00;99.90
59857;DHT22;45733;52.668;6.860;2023-05-07T08:43:06;15.50;99.90
59857;DHT22;45733;52.668;6.860;2023-05-07T08:45:35;15.30;99.90
59857;DHT22;45733;52.668;6.860;2023-05-07T08:48:02;15.20;99.90
59857;DHT22;45733;52.668;6.860;2023-05-07T08:50:28;15.50;99.90
59857;DHT22;45733;52.668;6.860;2023-05-07T08:52:54;15.30;99.90
59857;DHT22;45733;52.668;6.860;2023-05-07T08:55:19;15.40;99.90
59857;DHT22;45733;52.668;6.860;2023-05-07T08:57:45;15.20;99.90
59857;DHT22;45733;52.668;6.860;2023-05-07T09:00:12;15.40;99.90
59857;DHT22;45733;52.668;6.860;2023-05-07T09:02:38;15.30;99.90
59857;DHT22;45733;52.668;6.860;2023-05-07T09:05:03;15.80;99.90
59857;DHT22;45733;52.668;6.860;2023-05-07T09:07:30;16.50;99.90
59857;DHT22;45733;52.668;6.860;2023-05-07T09:09:55;16.80;99.90
59857;DHT22;45733;52.668;6.860;2023-05-07T09:12:22;15.90;99.90
59857;DHT22;45733;52.668;6.860;2023-05-07T09:14:48;16.40;99.90
59857;DHT22;45733;52.668;6.860;2023-05-07T09:17:15;16.10;99.90
59857;DHT22;45733;52.668;6.860;2023-05-07T09:19:40;16.50;99.90
59857;DHT22;45733;52.668;6.860;2023-05-07T09:22:06;17.00;99.90
59857;DHT22;45733;52.668;6.860;2023-05-07T09:24:34;16.30;99.90
59857;DHT22;45733;52.668;6.860;2023-05-07T09:27:03;17.00;99.90
59857;DHT22;45733;52.668;6.860;2023-05-07T09:29:28;16.60;99.90
59857;DHT22;45733;52.668;6.860;2023-05-07T09:31:55;17.30;99.90
59857;DHT22;45733;52.668;6.860;2023-05-07T09:34:21;17.30;99.90
59857;DHT22;45733;52.668;6.860;2023-05-07T09:36:47;16.30;99.90
59857;DHT22;45733;52.668;6.860;2023-05-07T09:39:13;16.30;99.90
59857;DHT22;45733;52.668;6.860;2023-05-07T09:41:45;16.90;99.90
59857;DHT22;45733;52.668;6.860;2023-05-07T09:44:11;17.20;99.90
59857;DHT22;45733;52.668;6.860;2023-05-07T09:46:36;17.70;99.90
59857;DHT22;45733;52.668;6.860;2023-05-07T09:49:03;18.30;99.90
59857;DHT22;45733;52.668;6.860;2023-05-07T09:51:33;17.30;99.90
59857;DHT22;45733;52.668;6.860;2023-05-07T09:54:01;17.40;99.90
59857;DHT22;45733;52.668;6.860;2023-05-07T09:56:29;16.50;99.90
59857;DHT22;45733;52.668;6.860;2023-05-07T09:58:54;17.00;99.90
59857;DHT22;45733;52.668;6.860;2023-05-07T10:01:21;16.60;99.90
59857;DHT22;45733;52.668;6.860;2023-05-07T10:03:47;17.30;99.90
59857;DHT22;45733;52.668;6.860;2023-05-07T10:06:13;17.00;99.90
59857;DHT22;45733;52.668;6.860;2023-05-07T10:08:40;16.80;99.90
59857;DHT22;45733;52.668;6.860;2023-05-07T10:11:05;17.40;99.90
59857;DHT22;45733;52.668;6.860;2023-05-07T10:13:34;17.80;99.90
59857;DHT22;45733;52.668;6.860;2023-05-07T10:16:04;17.10;99.90
59857;DHT22;45733;52.668;6.860;2023-05-07T10:18:30;17.10;99.90
59857;DHT22;45733;52.668;6.860;2023-05-07T10:21:11;17.20;99.90
59857;DHT22;45733;52.668;6.860;2023-05-07T10:23:38;17.30;99.90
59857;DHT22;45733;52.668;6.860;2023-05-07T10:26:05;17.10;99.90
59857;DHT22;45733;52.668;6.860;2023-05-07T10:28:33;17.50;99.90
59857;DHT22;45733;52.668;6.860;2023-05-07T10:33:28;18.00;99.90
59857;DHT22;45733;52.668;6.860;2023-05-07T10:35:58;18.40;99.90
59857;DHT22;45733;52.668;6.860;2023-05-07T10:38:25;18.80;99.90
59857;DHT22;45733;52.668;6.860;2023-05-07T10:40:50;18.50;99.90
59857;DHT22;45733;52.668;6.860;2023-05-07T10:43:16;18.70;99.90
59857;DHT22;45733;52.668;6.860;2023-05-07T10:45:42;17.70;99.90
59857;DHT22;45733;52.668;6.860;2023-05-07T10:48:08;17.50;99.90
59857;DHT22;45733;52.668;6.860;2023-05-07T10:50:34;17.70;99.90
59857;DHT22;45733;52.668;6.860;2023-05-07T10:55:46;17.90;99.90
59857;DHT22;45733;52.668;6.860;2023-05-07T11:00:47;17.80;99.90
59857;DHT22;45733;52.668;6.860;2023-05-07T11:03:13;17.70;99.90
59857;DHT22;45733;52.668;6.860;2023-05-07T11:05:40;17.60;99.90
59857;DHT22;45733;52.668;6.860;2023-05-07T11:08:06;17.50;99.90
59857;DHT22;45733;52.668;6.860;2023-05-07T11:10:51;17.40;99.90
59857;DHT22;45733;52.668;6.860;2023-05-07T11:13:17;18.40;99.90
59857;DHT22;45733;52.668;6.860;2023-05-07T11:15:44;18.80;99.90
59857;DHT22;45733;52.668;6.860;2023-05-07T11:18:11;18.90;99.90
59857;DHT22;45733;52.668;6.860;2023-05-07T11:20:50;18.20;99.90
59857;DHT22;45733;52.668;6.860;2023-05-07T11:26:07;18.50;99.90
59857;DHT22;45733;52.668;6.860;2023-05-07T11:28:39;18.50;99.90
59857;DHT22;45733;52.668;6.860;2023-05-07T11:31:05;18.40;99.90
59857;DHT22;45733;52.668;6.860;2023-05-07T11:33:31;18.00;99.90
59857;DHT22;45733;52.668;6.860;2023-05-07T11:35:57;17.90;99.90
59857;DHT22;45733;52.668;6.860;2023-05-07T11:38:23;17.90;99.90
59857;DHT22;45733;52.668;6.860;2023-05-07T11:40:52;17.80;99.90
59857;DHT22;45733;52.668;6.860;2023-05-07T11:43:18;18.30;99.90
59857;DHT22;45733;52.668;6.860;2023-05-07T11:45:46;17.60;99.90
59857;DHT22;45733;52.668;6.860;2023-05-07T11:48:13;17.60;99.90
59857;DHT22;45733;52.668;6.860;2023-05-07T11:50:51;18.00;99.90
59857;DHT22;45733;52.668;6.860;2023-05-07T11:53:20;17.80;99.90
59857;DHT22;45733;52.668;6.860;2023-05-07T11:55:51;18.30;99.90
59857;DHT22;45733;52.668;6.860;2023-05-07T11:58:20;19.00;99.90
59857;DHT22;45733;52.668;6.860;2023-05-07T12:00:54;20.20;99.90
59857;DHT22;45733;52.668;6.860;2023-05-07T12:03:20;19.30;99.90
59857;DHT22;45733;52.668;6.860;2023-05-07T12:05:46;19.60;99.90
59857;DHT22;45733;52.668;6.860;2023-05-07T12:08:15;19.90;99.90
59857;DHT22;45733;52.668;6.860;2023-05-07T12:10:41;19.20;99.90
59857;DHT22;45733;52.668;6.860;2023-05-07T12:13:16;19.10;99.90
59857;DHT22;45733;52.668;6.860;2023-05-07T12:15:42;18.80;99.90
59857;DHT22;45733;52.668;6.860;2023-05-07T12:18:08;18.50;99.90
59857;DHT22;45733;52.668;6.860;2023-05-07T12:20:34;18.80;99.90
59857;DHT22;45733;52.668;6.860;2023-05-07T12:23:01;18.80;99.90
59857;DHT22;45733;52.668;6.860;2023-05-07T12:25:26;19.10;99.90
59857;DHT22;45733;52.668;6.860;2023-05-07T12:27:52;18.40;99.90
59857;DHT22;45733;52.668;6.860;2023-05-07T12:30:18;18.10;99.90
59857;DHT22;45733;52.668;6.860;2023-05-07T12:32:44;18.50;99.90
59857;DHT22;45733;52.668;6.860;2023-05-07T12:35:10;18.40;99.90
59857;DHT22;45733;52.668;6.860;2023-05-07T12:37:36;18.40;99.90
59857;DHT22;45733;52.668;6.860;2023-05-07T12:40:08;18.60;99.90
59857;DHT22;45733;52.668;6.860;2023-05-07T12:42:39;18.70;99.90
59857;DHT22;45733;52.668;6.860;2023-05-07T12:45:11;19.20;99.90
59857;DHT22;45733;52.668;6.860;2023-05-07T12:47:37;19.00;99.90
59857;DHT22;45733;52.668;6.860;2023-05-07T12:50:05;19.70;99.90
59857;DHT22;45733;52.668;6.860;2023-05-07T12:52:30;19.10;99.90
59857;DHT22;45733;52.668;6.860;2023-05-07T12:54:56;19.20;99.90
59857;DHT22;45733;52.668;6.860;2023-05-07T12:57:22;19.10;99.90
59857;DHT22;45733;52.668;6.860;2023-05-07T12:59:47;19.50;99.90
59857;DHT22;45733;52.668;6.860;2023-05-07T13:02:13;19.90;99.90
59857;DHT22;45733;52.668;6.860;2023-05-07T13:04:38;18.50;99.90
59857;DHT22;45733;52.668;6.860;2023-05-07T13:07:04;18.30;99.90
59857;DHT22;45733;52.668;6.860;2023-05-07T13:09:30;18.90;99.90
59857;DHT22;45733;52.668;6.860;2023-05-07T13:11:56;19.20;99.90
59857;DHT22;45733;52.668;6.860;2023-05-07T13:14:21;19.20;99.90
59857;DHT22;45733;52.668;6.860;2023-05-07T13:16:47;19.70;99.90
59857;DHT22;45733;52.668;6.860;2023-05-07T13:19:13;19.30;99.90
59857;DHT22;45733;52.668;6.860;2023-05-07T13:21:38;19.70;99.90
59857;DHT22;45733;52.668;6.860;2023-05-07T13:24:04;19.30;99.90
59857;DHT22;45733;52.668;6.860;2023-05-07T13:26:30;19.30;99.90
59857;DHT22;45733;52.668;6.860;2023-05-07T13:28:56;19.80;99.90
59857;DHT22;45733;52.668;6.860;2023-05-07T13:31:22;20.00;99.90
59857;DHT22;45733;52.668;6.860;2023-05-07T13:33:48;20.40;99.90
59857;DHT22;45733;52.668;6.860;2023-05-07T13:36:14;19.70;99.90
59857;DHT22;45733;52.668;6.860;2023-05-07T13:38:43;18.90;99.90
59857;DHT22;45733;52.668;6.860;2023-05-07T13:41:08;18.70;99.90
59857;DHT22;45733;52.668;6.860;2023-05-07T13:43:34;18.50;99.90
59857;DHT22;45733;52.668;6.860;2023-05-07T13:46:00;18.50;99.90
59857;DHT22;45733;52.668;6.860;2023-05-07T13:48:25;18.80;99.90
59857;DHT22;45733;52.668;6.860;2023-05-07T13:50:51;18.60;99.90
59857;DHT22;45733;52.668;6.860;2023-05-07T13:53:17;18.60;99.90
59857;DHT22;45733;52.668;6.860;2023-05-07T13:55:43;18.70;99.90
59857;DHT22;45733;52.668;6.860;2023-05-07T13:58:09;18.70;99.90
59857;DHT22;45733;52.668;6.860;2023-05-07T14:00:35;18.50;99.90
59857;DHT22;45733;52.668;6.860;2023-05-07T14:03:01;19.00;99.90
59857;DHT22;45733;52.668;6.860;2023-05-07T14:05:26;19.70;99.90
59857;DHT22;45733;52.668;6.860;2023-05-07T14:07:54;19.40;99.90
59857;DHT22;45733;52.668;6.860;2023-05-07T14:10:20;18.60;99.90
59857;DHT22;45733;52.668;6.860;2023-05-07T14:12:46;19.10;99.90
59857;DHT22;45733;52.668;6.860;2023-05-07T14:15:12;18.30;99.90
59857;DHT22;45733;52.668;6.860;2023-05-07T14:17:37;18.30;99.90
59857;DHT22;45733;52.668;6.860;2023-05-07T14:20:03;18.40;99.90
59857;DHT22;45733;52.668;6.860;2023-05-07T14:22:28;18.80;99.90
59857;DHT22;45733;52.668;6.860;2023-05-07T14:24:54;18.30;99.90
59857;DHT22;45733;52.668;6.860;2023-05-07T14:27:20;18.60;99.90
59857;DHT22;45733;52.668;6.860;2023-05-07T14:29:45;18.50;99.90
59857;DHT22;45733;52.668;6.860;2023-05-07T14:32:19;18.40;99.90
59857;DHT22;45733;52.668;6.860;2023-05-07T14:34:44;18.10;99.90
59857;DHT22;45733;52.668;6.860;2023-05-07T14:37:10;18.20;99.90
59857;DHT22;45733;52.668;6.860;2023-05-07T14:39:36;18.50;99.90
59857;DHT22;45733;52.668;6.860;2023-05-07T14:42:01;18.30;99.90
59857;DHT22;45733;52.668;6.860;2023-05-07T14:44:27;18.40;99.90
59857;DHT22;45733;52.668;6.860;2023-05-07T14:46:53;18.60;99.90
59857;DHT22;45733;52.668;6.860;2023-05-07T14:49:18;18.70;99.90
59857;DHT22;45733;52.668;6.860;2023-05-07T14:51:44;18.70;99.90
59857;DHT22;45733;52.668;6.860;2023-05-07T14:54:10;18.50;99.90
59857;DHT22;45733;52.668;6.860;2023-05-07T14:56:36;18.70;99.90
59857;DHT22;45733;52.668;6.860;2023-05-07T14:59:02;18.70;99.90
59857;DHT22;45733;52.668;6.860;2023-05-07T15:01:28;18.90;99.90
59857;DHT22;45733;52.668;6.860;2023-05-07T15:03:53;18.70;99.90
59857;DHT22;45733;52.668;6.860;2023-05-07T15:06:19;18.90;99.90
59857;DHT22;45733;52.668;6.860;2023-05-07T15:08:45;19.20;99.90
59857;DHT22;45733;52.668;6.860;2023-05-07T15:11:11;19.00;99.90
59857;DHT22;45733;52.668;6.860;2023-05-07T15:13:36;19.40;99.90
59857;DHT22;45733;52.668;6.860;2023-05-07T15:16:02;19.30;99.90
59857;DHT22;45733;52.668;6.860;2023-05-07T15:18:27;19.50;99.90
59857;DHT22;45733;52.668;6.860;2023-05-07T15:20:53;19.00;99.90
59857;DHT22;45733;52.668;6.860;2023-05-07T15:23:18;19.20;99.90
59857;DHT22;45733;52.668;6.860;2023-05-07T15:25:44;19.20;99.90
59857;DHT22;45733;52.668;6.860;2023-05-07T15:28:09;19.20;99.90
59857;DHT22;45733;52.668;6.860;2023-05-07T15:30:35;19.50;99.90
59857;DHT22;45733;52.668;6.860;2023-05-07T15:33:01;19.40;99.90
59857;DHT22;45733;52.668;6.860;2023-05-07T15:35:27;19.10;99.90